Pagrindinis puslapis
METAR-TAF:

METAR-TAF

Oro uostai :

Naha, Japonija

platuma: 26-11N, ilguma: 127-39E, Aukštis: 3 m

Dabartinis oras

Ataskaita buvo paskelbta 16 minutes, ne 03:30 UTC
Vėjas 15 kt iš Šiaurės
Temperatūra 19°C
Drėgmė 60%
Slėgis 1014 hPa
Matomumas 10 km arba daugiau
Išsisklaidę debesys ne aukštis 3500 ft
Su prošvaistėmis ne aukštis 5000 ft
Su prošvaistėmis ne aukštis 15000 ft

METAR: ROAH 280330Z 35015KT 9999 SCT035 BKN050 BKN150 19/11 Q1014 RMK 3CU035 5SC050 7AC150 A2995 MOD TURB OBS AT 0300Z 60NM NNE NHC BTN FL290 AND FL280 B738

Laikas: 12:46 (03:46 UTC)

Prognozė

Ataskaita buvo paskelbta 4 valandos ir 40 minutes, ne 23:06 UTC
Prognozė galioja nuo 28 metu 00 UTC su 29 metu 06 UTC
Vėjas 16 kt iš Šiaurės/Šiaurės Vakarų
Matomumas 10 km arba daugiau
Mažai debesys ne aukštis 3000 ft
Su prošvaistėmis ne aukštis 4500 ft

TAF: ROAH 272306Z 2800/2906 34016KT 9999 FEW030 BKN045

Orai ataskaitas ir orų prognozės (METAR, TAF).

turimą stotys yra geltonos ir raudonos taškus žemėlapyje.

Perkelti pele per norėdami pamatyti stoties vardą.

Tada spustelėkite, norėdami matyti oro stebėjimo ir prognozės.

Norėdami pakeisti žemėlapį: spustelėkite ant žalios mygtukų su juodo kryžiaus žemyn,; žalią mygtuką su brūkšneliu, jei norite nutolinti; arba žalių rodyklių gretimoms žemėlapius.


METAR-TAF: